Time;durP1;ratioP1;P1;durP2;ratioP2;P2;SDS_P1;SDS_P2;PMS_P1;PMS_P2;Temp;Humidity;BMP_temperature;BMP_pressure;BME280_temperature;BME280_humidity;BME280_pressure;Samples;Min_cycle;Max_cycle;Signal;HPM_P1;HPM_P2
2021/05/02 00:00:28;;;;;;;24.85;22.40;;;;;;;5.30;89.22;95991.69;5073963;28;20036;-74
2021/05/02 00:02:55;;;;;;;25.60;22.35;;;;;;;5.32;89.67;96001.91;5073862;28;20051;-75
2021/05/02 00:05:24;;;;;;;23.98;21.45;;;;;;;5.33;89.82;95998.28;5073645;28;20043;-75
2021/05/02 00:07:50;;;;;;;27.73;24.65;;;;;;;5.34;89.79;96003.31;5063970;28;20044;-74
2021/05/02 00:10:18;;;;;;;25.30;22.60;;;;;;;5.32;89.70;95997.50;5074002;28;20040;-74
2021/05/02 00:12:46;;;;;;;25.33;22.67;;;;;;;5.34;90.20;96003.31;5073591;28;20028;-74
2021/05/02 00:15:19;;;;;;;24.35;21.85;;;;;;;5.40;90.97;96014.72;5073594;28;20037;-74
2021/05/02 00:17:46;;;;;;;23.70;21.20;;;;;;;5.49;91.19;96018.75;5062095;28;20049;-74
2021/05/02 00:20:16;;;;;;;21.83;19.73;;;;;;;5.57;90.76;96015.97;5073523;28;20033;-74
2021/05/02 00:22:45;;;;;;;22.42;20.13;;;;;;;5.60;90.11;96009.56;5073126;28;20049;-74
2021/05/02 00:25:14;;;;;;;24.77;22.13;;;;;;;5.63;90.07;96017.00;5073437;28;20032;-74
2021/05/02 00:27:41;;;;;;;25.45;22.85;;;;;;;5.62;89.58;96016.16;5073126;28;20040;-74
2021/05/02 00:30:12;;;;;;;21.25;19.17;;;;;;;5.66;89.92;96024.38;5074106;28;20051;-74
2021/05/02 00:32:39;;;;;;;23.10;20.75;;;;;;;5.66;89.87;96019.97;5064588;28;20051;-75
2021/05/02 00:35:07;;;;;;;22.48;20.17;;;;;;;5.70;89.90;96017.78;5073994;28;20396;-75
2021/05/02 00:37:36;;;;;;;24.08;21.65;;;;;;;5.74;89.92;96026.81;5073345;28;20037;-75
2021/05/02 00:40:07;;;;;;;23.65;21.27;;;;;;;5.80;89.76;96025.22;5073225;28;20036;-75
2021/05/02 00:42:36;;;;;;;21.35;19.35;;;;;;;5.82;89.69;96031.81;5073425;28;20047;-75
2021/05/02 00:45:08;;;;;;;20.95;18.95;;;;;;;5.86;89.37;96034.84;5073604;28;20028;-74
2021/05/02 00:47:42;;;;;;;21.23;18.50;;;;;;;5.83;88.67;96033.41;5073318;28;20052;-74
2021/05/02 00:50:11;;;;;;;21.90;19.70;;;;;;;5.77;87.92;96038.63;5073253;28;20037;-75
2021/05/02 00:52:51;;;;;;;22.45;20.23;;;;;;;5.68;88.37;96038.00;5073815;28;20036;-74
2021/05/02 00:55:45;;;;;;;20.67;18.65;;;;;;;5.61;87.46;96037.19;5072749;28;20053;-75
2021/05/02 00:58:25;;;;;;;20.05;18.25;;;;;;;5.53;87.63;96050.38;5072982;28;20045;-74
2021/05/02 01:00:54;;;;;;;20.48;18.38;;;;;;;5.44;87.94;96050.53;5072874;28;20051;-74
2021/05/02 01:03:24;;;;;;;21.08;19.10;;;;;;;5.43;88.45;96056.72;5072949;28;20405;-74
2021/05/02 01:05:54;;;;;;;20.15;18.15;;;;;;;5.44;88.96;96052.34;5073117;28;20037;-74
2021/05/02 01:08:21;;;;;;;20.38;18.38;;;;;;;5.44;88.56;96060.16;5072805;28;20029;-74
2021/05/02 01:10:50;;;;;;;18.45;16.67;;;;;;;5.44;88.83;96060.16;5072265;28;20052;-74
2021/05/02 01:13:19;;;;;;;18.40;16.70;;;;;;;5.48;88.57;96064.75;5073086;28;20052;-75
2021/05/02 01:15:49;;;;;;;19.50;17.58;;;;;;;5.50;88.83;96067.16;5071654;28;20043;-74
2021/05/02 01:18:18;;;;;;;19.92;17.92;;;;;;;5.54;89.29;96070.97;5072054;28;20071;-74
2021/05/02 01:20:45;;;;;;;16.83;15.30;;;;;;;5.54;88.11;96067.56;5072819;28;20043;-74
2021/05/02 01:23:17;;;;;;;18.67;16.88;;;;;;;5.50;87.87;96072.34;5072706;28;20044;-74
2021/05/02 01:25:45;;;;;;;17.05;15.52;;;;;;;5.47;87.55;96068.34;5072954;28;20483;-74
2021/05/02 01:28:11;;;;;;;17.45;15.80;;;;;;;5.45;87.44;96067.72;5070817;28;20044;-74
2021/05/02 01:30:38;;;;;;;19.30;17.30;;;;;;;5.46;87.75;96069.34;5072657;28;20420;-75
2021/05/02 01:33:05;;;;;;;19.15;17.30;;;;;;;5.48;88.05;96079.53;5072824;28;20040;-75
2021/05/02 01:35:31;;;;;;;17.48;15.77;;;;;;;5.51;87.90;96080.97;5073036;28;20362;-75
2021/05/02 01:37:58;;;;;;;17.08;15.63;;;;;;;5.51;87.95;96079.16;5072686;28;20044;-76
2021/05/02 01:40:24;;;;;;;17.77;16.08;;;;;;;5.51;87.93;96076.56;5072194;28;20044;-76
2021/05/02 01:42:51;;;;;;;18.33;16.73;;;;;;;5.48;87.42;96082.13;5072714;28;20396;-76
2021/05/02 01:45:17;;;;;;;17.77;16.08;;;;;;;5.43;87.79;96090.53;5072621;28;20055;-75
2021/05/02 01:47:48;;;;;;;16.70;15.23;;;;;;;5.42;87.38;96088.16;5072625;28;20032;-74
2021/05/02 01:50:15;;;;;;;18.02;16.23;;;;;;;5.41;87.44;96089.13;5070845;28;20051;-74
2021/05/02 01:52:48;;;;;;;16.05;14.63;;;;;;;5.44;88.06;96083.56;5072360;28;20047;-75
2021/05/02 01:55:16;;;;;;;19.02;17.15;;;;;;;5.45;87.81;96087.75;5072811;28;20033;-74
2021/05/02 01:57:52;;;;;;;17.05;15.60;;;;;;;5.45;87.48;96090.34;5072280;28;20045;-75
2021/05/02 02:00:25;;;;;;;16.95;15.40;;;;;;;5.46;87.53;96099.75;5072957;28;20040;-75
2021/05/02 02:03:02;;;;;;;16.95;15.35;;;;;;;5.46;87.79;96103.16;5072450;28;20052;-76
2021/05/02 02:05:30;;;;;;;15.23;13.93;;;;;;;5.45;87.55;96105.94;5072394;28;20047;-74
2021/05/02 02:07:57;;;;;;;16.13;14.68;;;;;;;5.45;87.20;96101.53;5074740;28;20040;-75
2021/05/02 02:10:25;;;;;;;16.25;14.85;;;;;;;5.42;86.73;96111.53;5076752;28;20040;-74
2021/05/02 02:12:51;;;;;;;15.35;13.95;;;;;;;5.38;86.98;96107.72;5076256;28;20051;-75
2021/05/02 02:15:20;;;;;;;15.85;14.45;;;;;;;5.38;87.01;96121.53;5076287;28;20448;-74
2021/05/02 02:17:58;;;;;;;15.48;14.15;;;;;;;5.35;86.63;96128.91;5075857;28;20036;-74
2021/05/02 02:20:27;;;;;;;15.70;14.23;;;;;;;5.35;87.15;96129.69;5074913;28;20048;-75
2021/05/02 02:22:56;;;;;;;14.73;13.32;;;;;;;5.37;87.20;96122.50;5075509;28;20043;-74
2021/05/02 02:25:31;;;;;;;14.55;13.05;;;;;;;5.38;87.14;96131.94;5076380;28;20409;-74
2021/05/02 02:28:02;;;;;;;16.08;14.57;;;;;;;5.33;86.03;96123.09;5075613;28;20048;-74
2021/05/02 02:30:32;;;;;;;15.02;13.73;;;;;;;5.32;86.74;96134.50;5074786;28;20469;-75
2021/05/02 02:33:01;;;;;;;14.93;13.55;;;;;;;5.31;86.80;96138.06;5074868;28;20048;-75
2021/05/02 02:35:29;;;;;;;14.45;13.05;;;;;;;5.26;86.26;96144.66;5075849;28;20028;-75
2021/05/02 02:37:57;;;;;;;13.82;12.57;;;;;;;5.22;86.09;96143.44;5075376;28;20112;-74
2021/05/02 02:40:23;;;;;;;14.85;13.65;;;;;;;5.20;86.78;96147.22;5075197;28;20048;-76
2021/05/02 02:42:51;;;;;;;15.07;13.63;;;;;;;5.19;86.84;96151.63;5075949;28;20045;-75
2021/05/02 02:45:18;;;;;;;14.68;13.38;;;;;;;5.17;86.44;96152.81;5075481;28;20469;-76
2021/05/02 02:47:53;;;;;;;14.55;13.25;;;;;;;5.13;85.82;96159.38;5063748;28;20036;-74
2021/05/02 02:50:20;;;;;;;15.23;13.93;;;;;;;5.02;85.80;96164.13;5075478;28;20123;-74
2021/05/02 02:52:51;;;;;;;15.75;14.13;;;;;;;4.96;85.89;96162.28;5075121;28;20047;-75
2021/05/02 02:55:19;;;;;;;15.63;14.07;;;;;;;4.90;85.84;96167.41;5063867;28;20126;-74
2021/05/02 02:57:55;;;;;;;13.95;12.75;;;;;;;4.88;86.08;96165.81;5074764;28;20043;-74
2021/05/02 03:00:24;;;;;;;14.13;12.93;;;;;;;4.88;85.82;96167.59;5075809;28;20358;-74
2021/05/02 03:02:55;;;;;;;14.55;13.35;;;;;;;4.82;85.55;96168.34;5074402;28;20048;-75
2021/05/02 03:05:25;;;;;;;15.02;13.63;;;;;;;4.75;85.38;96165.72;5075991;28;20103;-74
2021/05/02 03:07:52;;;;;;;13.40;12.20;;;;;;;4.75;85.69;96168.31;5075202;28;20032;-74
2021/05/02 03:10:20;;;;;;;14.60;13.32;;;;;;;4.79;86.03;96173.94;5074370;28;20063;-74
2021/05/02 03:12:50;;;;;;;15.00;13.50;;;;;;;4.83;86.17;96173.38;5074847;28;20036;-74
2021/05/02 03:15:16;;;;;;;14.73;13.43;;;;;;;4.88;86.75;96176.19;5074173;28;20048;-75
2021/05/02 03:17:53;;;;;;;15.35;14.00;;;;;;;4.95;86.98;96178.03;5075082;28;20388;-74
2021/05/02 03:20:24;;;;;;;14.32;13.02;;;;;;;5.00;86.12;96186.88;5074610;28;20464;-74
2021/05/02 03:22:56;;;;;;;14.30;13.10;;;;;;;5.03;85.93;96186.50;5074684;28;20040;-75
2021/05/02 03:25:25;;;;;;;14.73;13.52;;;;;;;5.07;86.06;96187.72;5075058;28;20068;-75
2021/05/02 03:28:02;;;;;;;15.25;13.95;;;;;;;5.11;86.06;96192.56;5074249;28;20053;-75
2021/05/02 03:30:29;;;;;;;14.07;12.77;;;;;;;5.13;85.91;96193.19;5074512;28;20032;-75
2021/05/02 03:32:57;;;;;;;15.45;14.18;;;;;;;5.18;86.21;96202.00;5074639;28;20029;-75
2021/05/02 03:35:27;;;;;;;14.23;13.02;;;;;;;5.20;86.25;96204.41;5059911;28;20036;-75
2021/05/02 03:38:07;;;;;;;14.40;13.20;;;;;;;5.24;86.36;96210.84;5073915;28;20055;-74
2021/05/02 03:40:34;;;;;;;13.73;12.52;;;;;;;5.26;85.97;96214.06;5074257;28;20473;-75
2021/05/02 03:43:00;;;;;;;15.20;14.00;;;;;;;5.29;86.29;96206.69;5074764;28;20465;-74
2021/05/02 03:45:27;;;;;;;15.10;13.80;;;;;;;5.31;86.09;96211.66;5073806;28;20063;-74
2021/05/02 03:47:53;;;;;;;14.75;13.48;;;;;;;5.32;85.86;96204.69;5074258;28;20044;-74
2021/05/02 03:50:19;;;;;;;14.88;13.68;;;;;;;5.34;85.95;96205.31;5073799;28;20045;-75
2021/05/02 03:52:45;;;;;;;14.73;13.35;;;;;;;5.34;85.75;96216.50;5074538;28;20047;-74
2021/05/02 03:55:11;;;;;;;14.27;13.10;;;;;;;5.35;85.88;96218.09;5074441;28;20358;-74
2021/05/02 03:57:38;;;;;;;13.43;12.38;;;;;;;5.35;85.45;96204.31;5074053;28;20047;-74
2021/05/02 04:00:04;;;;;;;14.40;13.20;;;;;;;5.31;85.31;96218.69;5074332;28;20048;-74
2021/05/02 04:02:31;;;;;;;14.55;13.20;;;;;;;5.28;85.13;96210.25;5073891;28;20049;-75
2021/05/02 04:04:57;;;;;;;13.82;12.73;;;;;;;5.29;85.26;96216.25;5074517;28;20040;-75
2021/05/02 04:07:23;;;;;;;15.18;13.88;;;;;;;5.31;85.27;96216.06;5073623;28;20055;-75
2021/05/02 04:09:50;;;;;;;13.48;12.38;;;;;;;5.33;85.41;96232.28;5073882;28;20056;-75
2021/05/02 04:12:16;;;;;;;14.88;13.57;;;;;;;5.33;85.08;96229.69;5073510;28;20508;-75
2021/05/02 04:14:43;;;;;;;14.57;13.25;;;;;;;5.32;85.23;96231.50;5073610;28;20405;-75
2021/05/02 04:17:12;;;;;;;14.70;13.55;;;;;;;5.31;84.89;96237.66;5073452;28;20504;-75
2021/05/02 04:19:44;;;;;;;16.15;14.75;;;;;;;5.30;85.04;96241.28;5073676;28;20443;-75
2021/05/02 04:22:15;;;;;;;14.88;13.70;;;;;;;5.22;85.11;96237.00;5073843;28;20025;-76
2021/05/02 04:24:46;;;;;;;14.63;13.38;;;;;;;5.20;85.26;96240.81;5073951;28;20033;-76
2021/05/02 04:27:13;;;;;;;14.80;13.50;;;;;;;5.22;85.55;96247.41;5059918;28;20040;-75
2021/05/02 04:29:39;;;;;;;14.50;13.30;;;;;;;5.23;85.50;96253.44;5073006;28;20045;-75
2021/05/02 04:32:05;;;;;;;16.08;14.68;;;;;;;5.20;85.04;96259.78;5073229;28;20051;-75
2021/05/02 04:34:32;;;;;;;15.43;14.15;;;;;;;5.20;85.47;96262.41;5073359;28;20047;-75
2021/05/02 04:36:58;;;;;;;14.73;13.43;;;;;;;5.24;85.76;96263.63;5073606;28;20032;-75
2021/05/02 04:39:26;;;;;;;15.05;13.65;;;;;;;5.27;85.44;96271.06;5073539;28;20048;-75
2021/05/02 04:41:53;;;;;;;17.65;16.05;;;;;;;5.25;85.24;96267.84;5073509;28;20107;-75
2021/05/02 04:44:20;;;;;;;17.55;16.05;;;;;;;5.22;85.09;96275.22;5073321;28;20408;-76
2021/05/02 04:46:46;;;;;;;26.35;23.95;;;;;;;5.21;85.45;96273.63;5073447;28;20044;-75
2021/05/02 04:49:13;;;;;;;18.65;17.05;;;;;;;5.25;85.55;96280.84;5073089;28;20040;-76
2021/05/02 04:51:39;;;;;;;15.43;14.23;;;;;;;5.24;85.37;96283.63;5072977;28;20045;-76
2021/05/02 04:54:07;;;;;;;16.27;14.88;;;;;;;5.26;85.27;96285.03;5073452;28;20396;-75
2021/05/02 04:56:34;;;;;;;15.05;13.85;;;;;;;5.24;84.95;96281.81;5073212;28;20047;-76
2021/05/02 04:59:03;;;;;;;16.90;15.30;;;;;;;5.24;84.74;96294.03;5073433;28;20055;-75
2021/05/02 05:01:29;;;;;;;14.63;13.38;;;;;;;5.24;85.18;96301.84;5073042;28;20519;-74
2021/05/02 05:03:56;;;;;;;16.17;14.68;;;;;;;5.27;85.66;96296.25;5072802;28;20037;-75
2021/05/02 05:06:23;;;;;;;17.88;16.17;;;;;;;5.26;85.19;96295.44;5073030;28;20477;-75
2021/05/02 05:08:51;;;;;;;16.50;15.02;;;;;;;5.22;85.18;96290.81;5073286;28;20122;-76
2021/05/02 05:11:18;;;;;;;16.63;15.13;;;;;;;5.23;85.31;96301.03;5059524;28;20397;-75
2021/05/02 05:13:45;;;;;;;17.10;15.40;;;;;;;5.28;85.65;96297.88;5073581;28;20036;-75
2021/05/02 05:16:11;;;;;;;16.20;14.82;;;;;;;5.33;85.63;96299.91;5071925;28;20041;-74
2021/05/02 05:18:37;;;;;;;27.27;24.65;;;;;;;5.34;85.52;96302.31;5073049;28;20036;-75
2021/05/02 05:21:04;;;;;;;82.10;74.03;;;;;;;5.36;85.29;96300.34;5073137;28;20033;-74
2021/05/02 05:23:30;;;;;;;28.13;25.63;;;;;;;5.42;85.14;96298.78;5072630;28;20033;-75
2021/05/02 05:25:56;;;;;;;22.42;20.52;;;;;;;5.42;85.15;96306.59;5073085;28;20028;-74
2021/05/02 05:28:25;;;;;;;18.60;16.90;;;;;;;5.41;85.20;96308.34;5072661;28;20453;-75
2021/05/02 05:30:54;;;;;;;17.42;15.95;;;;;;;5.46;85.42;96307.81;5072784;28;20420;-74
2021/05/02 05:33:20;;;;;;;16.67;15.25;;;;;;;5.54;85.39;96312.06;5071505;28;20033;-75
2021/05/02 05:35:47;;;;;;;16.63;15.07;;;;;;;5.60;85.06;96311.31;5073407;28;20370;-75
2021/05/02 05:38:14;;;;;;;17.90;16.20;;;;;;;5.60;84.96;96311.31;5072712;28;20040;-75
2021/05/02 05:40:41;;;;;;;16.55;15.05;;;;;;;5.58;84.91;96313.28;5073254;28;20021;-75
2021/05/02 05:43:07;;;;;;;16.65;15.30;;;;;;;5.64;85.10;96321.13;5076609;28;20372;-75
2021/05/02 05:45:35;;;;;;;17.38;15.70;;;;;;;5.72;85.38;96320.19;5076018;28;20051;-75
2021/05/02 05:48:01;;;;;;;16.42;14.98;;;;;;;5.77;84.95;96323.00;5068532;28;20041;-75
2021/05/02 05:50:28;;;;;;;19.85;18.17;;;;;;;5.83;85.13;96326.66;5076070;28;20044;-75
2021/05/02 05:52:55;;;;;;;18.33;16.73;;;;;;;5.88;84.85;96313.91;5076701;28;20404;-75
2021/05/02 05:55:22;;;;;;;16.55;15.15;;;;;;;5.91;84.79;96326.53;5076159;28;20404;-75
2021/05/02 05:57:49;;;;;;;23.30;21.10;;;;;;;5.97;84.51;96328.38;5075812;28;20032;-75
2021/05/02 06:00:17;;;;;;;21.85;19.65;;;;;;;5.96;83.84;96331.19;5076813;28;20048;-75
2021/05/02 06:02:44;;;;;;;18.92;17.33;;;;;;;5.92;83.94;96338.53;5076472;28;20047;-74
2021/05/02 06:05:10;;;;;;;53.90;48.22;;;;;;;5.86;83.96;96337.50;5058120;28;20435;-75
2021/05/02 06:07:37;;;;;;;18.58;16.75;;;;;;;5.83;84.08;96337.88;5075508;28;20059;-75
2021/05/02 06:10:07;;;;;;;91.10;75.97;;;;;;;5.85;84.07;96337.69;5076021;28;20033;-75
2021/05/02 06:12:33;;;;;;;43.22;38.53;;;;;;;5.88;84.50;96339.94;5075883;28;20025;-75
2021/05/02 06:15:01;;;;;;;20.25;18.40;;;;;;;5.97;84.46;96341.41;5076275;28;20492;-75
2021/05/02 06:17:28;;;;;;;16.20;14.88;;;;;;;6.01;84.34;96345.22;5075933;28;20039;-75
2021/05/02 06:19:54;;;;;;;16.40;15.00;;;;;;;6.12;84.53;96346.50;5076530;28;20055;-75
2021/05/02 06:22:20;;;;;;;24.95;22.70;;;;;;;6.27;84.37;96351.56;5075825;28;20048;-76
2021/05/02 06:24:47;;;;;;;43.90;39.60;;;;;;;6.32;84.35;96348.38;5076353;28;20033;-75
2021/05/02 06:27:13;;;;;;;43.67;39.33;;;;;;;6.35;83.90;96345.41;5075982;28;20044;-75
2021/05/02 06:29:39;;;;;;;24.38;22.13;;;;;;;6.32;83.72;96351.81;5076182;28;20040;-75
2021/05/02 06:32:06;;;;;;;24.85;22.60;;;;;;;6.35;83.90;96346.22;5075478;28;20615;-75
2021/05/02 06:34:32;;;;;;;16.95;15.45;;;;;;;6.41;83.60;96360.28;5076025;28;20041;-75
2021/05/02 06:36:59;;;;;;;16.50;15.07;;;;;;;6.42;83.53;96356.66;5076364;28;20388;-75
2021/05/02 06:39:26;;;;;;;15.80;14.40;;;;;;;6.43;83.60;96358.28;5075521;28;20033;-75
2021/05/02 06:41:52;;;;;;;16.98;15.57;;;;;;;6.44;83.76;96365.09;5075321;28;20457;-75
2021/05/02 06:44:19;;;;;;;15.82;14.60;;;;;;;6.54;83.86;96362.94;5075949;28;20039;-75
2021/05/02 06:46:46;;;;;;;15.32;14.02;;;;;;;6.68;83.87;96364.59;5075711;28;20032;-76
2021/05/02 06:49:12;;;;;;;17.20;15.60;;;;;;;6.75;82.97;96363.81;5075880;28;20080;-75
2021/05/02 06:51:39;;;;;;;16.58;15.18;;;;;;;6.78;83.05;96366.00;5074762;28;20483;-75
2021/05/02 06:54:07;;;;;;;17.02;15.52;;;;;;;6.87;83.41;96373.47;5074544;28;20404;-75
2021/05/02 06:56:34;;;;;;;15.80;14.40;;;;;;;7.14;83.73;96372.72;5075370;28;20472;-75
2021/05/02 06:59:00;;;;;;;16.30;14.90;;;;;;;7.43;83.51;96372.38;5074747;28;20060;-75
2021/05/02 07:01:27;;;;;;;15.98;14.68;;;;;;;7.67;82.63;96364.97;5075960;28;20044;-75
2021/05/02 07:03:54;;;;;;;14.75;13.38;;;;;;;7.86;81.82;96366.75;5074514;28;20059;-76
2021/05/02 07:06:20;;;;;;;14.98;13.80;;;;;;;7.97;81.04;96365.34;5074779;28;20040;-75
2021/05/02 07:08:47;;;;;;;15.30;14.07;;;;;;;8.08;80.60;96369.97;5075765;28;20035;-75
2021/05/02 07:11:16;;;;;;;13.35;12.25;;;;;;;8.13;80.55;96370.13;5074733;28;20036;-75
2021/05/02 07:13:42;;;;;;;15.57;14.27;;;;;;;8.16;80.09;96371.53;5074700;28;20037;-75
2021/05/02 07:16:10;;;;;;;12.30;11.18;;;;;;;8.20;80.08;96379.78;5075253;28;20063;-76
2021/05/02 07:18:38;;;;;;;12.65;11.55;;;;;;;8.21;79.48;96376.13;5074714;28;20036;-76
2021/05/02 07:21:06;;;;;;;12.88;11.77;;;;;;;8.42;79.47;96372.50;5074710;28;20472;-75
2021/05/02 07:23:36;;;;;;;16.08;14.77;;;;;;;8.92;78.98;96375.31;5074089;28;20044;-75
2021/05/02 07:26:03;;;;;;;12.93;11.93;;;;;;;9.56;79.37;96373.53;5074111;28;20404;-75
2021/05/02 07:28:29;;;;;;;11.25;10.35;;;;;;;9.93;77.99;96373.63;5074582;28;20059;-76
2021/05/02 07:30:55;;;;;;;10.15;9.35;;;;;;;10.31;76.44;96376.13;5074760;28;20047;-75
2021/05/02 07:33:23;;;;;;;9.98;9.25;;;;;;;10.79;76.11;96377.19;5074889;28;20397;-76
2021/05/02 07:35:50;;;;;;;10.27;9.48;;;;;;;11.19;74.76;96379.28;5075126;28;20044;-76
2021/05/02 07:38:16;;;;;;;10.18;9.38;;;;;;;11.24;73.45;96383.91;5074533;28;20040;-76
2021/05/02 07:40:43;;;;;;;9.40;8.57;;;;;;;10.82;71.82;96382.00;5062532;28;20040;-76
2021/05/02 07:43:10;;;;;;;8.90;8.30;;;;;;;10.26;71.42;96386.41;5074277;28;20042;-76
2021/05/02 07:45:36;;;;;;;7.78;7.28;;;;;;;9.80;71.88;96392.88;5073646;28;20052;-76
2021/05/02 07:48:03;;;;;;;7.68;6.97;;;;;;;9.45;72.01;96392.53;5073019;28;20469;-76
2021/05/02 07:50:29;;;;;;;7.45;6.82;;;;;;;9.08;72.21;96397.59;5074053;28;20029;-76
2021/05/02 07:52:55;;;;;;;6.72;6.05;;;;;;;8.76;71.60;96394.09;5074519;28;20037;-76
2021/05/02 07:55:21;;;;;;;6.90;6.40;;;;;;;8.98;72.36;96403.25;5074122;28;20392;-76
2021/05/02 07:57:48;;;;;;;7.20;6.60;;;;;;;9.35;71.86;96395.63;5073449;28;20060;-76
2021/05/02 08:00:18;;;;;;;7.03;6.47;;;;;;;9.77;71.06;96393.31;5074917;28;20049;-76
2021/05/02 08:02:45;;;;;;;6.72;6.22;;;;;;;10.21;70.69;96398.59;5074243;28;20041;-76
2021/05/02 08:05:12;;;;;;;6.80;6.20;;;;;;;10.70;69.36;96399.50;5073254;28;20032;-76
2021/05/02 08:07:38;;;;;;;6.40;5.90;;;;;;;11.26;68.63;96397.59;5073219;28;20049;-76
2021/05/02 08:10:06;;;;;;;9.68;6.32;;;;;;;11.45;67.37;96398.34;5073701;28;20048;-76
2021/05/02 08:12:32;;;;;;;6.80;6.30;;;;;;;11.34;65.98;96403.34;5073457;28;20036;-77
2021/05/02 08:14:58;;;;;;;7.25;6.70;;;;;;;11.13;65.50;96409.88;5073575;28;20036;-77
2021/05/02 08:17:25;;;;;;;7.63;7.03;;;;;;;10.83;65.45;96415.06;5073441;28;20035;-76
2021/05/02 08:19:52;;;;;;;7.80;7.10;;;;;;;10.63;65.56;96409.28;5073435;28;20052;-77
2021/05/02 08:22:19;;;;;;;7.85;7.18;;;;;;;10.40;65.31;96420.41;5073460;28;20039;-77
2021/05/02 08:24:46;;;;;;;7.30;6.70;;;;;;;10.11;65.02;96415.59;5073207;28;20461;-76
2021/05/02 08:27:12;;;;;;;7.03;6.43;;;;;;;9.86;64.68;96422.66;5073424;28;20036;-77
2021/05/02 08:29:39;;;;;;;7.45;6.95;;;;;;;9.70;65.00;96423.97;5073741;28;20484;-77
2021/05/02 08:32:06;;;;;;;7.50;6.90;;;;;;;9.55;65.19;96425.09;5073826;28;20036;-77
2021/05/02 08:34:33;;;;;;;7.22;6.72;;;;;;;9.46;65.04;96425.56;5072134;28;20056;-77
2021/05/02 08:36:59;;;;;;;7.10;6.57;;;;;;;9.37;64.77;96430.25;5073304;28;20033;-77
2021/05/02 08:39:26;;;;;;;7.63;7.07;;;;;;;9.30;64.98;96429.47;5073024;28;20040;-77
2021/05/02 08:41:52;;;;;;;7.43;6.88;;;;;;;9.31;65.22;96428.47;5073466;28;20043;-77
2021/05/02 08:44:23;;;;;;;7.82;7.22;;;;;;;9.29;64.76;96417.41;5073006;28;20449;-77
2021/05/02 08:46:51;;;;;;;7.55;6.95;;;;;;;9.25;64.64;96426.69;5073996;28;20040;-77
2021/05/02 08:49:19;;;;;;;7.35;6.85;;;;;;;9.21;64.61;96433.34;5073254;28;20043;-77
2021/05/02 08:51:46;;;;;;;7.32;6.82;;;;;;;9.21;64.76;96436.75;5073152;28;20036;-78
2021/05/02 08:54:14;;;;;;;8.25;7.35;;;;;;;9.22;64.91;96435.75;5073116;28;20040;-78
2021/05/02 08:56:40;;;;;;;7.22;6.72;;;;;;;9.14;63.85;96433.38;5073437;28;20036;-78
2021/05/02 08:59:08;;;;;;;7.05;6.50;;;;;;;9.08;63.51;96435.00;5073353;28;20063;-78
2021/05/02 09:01:37;;;;;;;7.50;7.00;;;;;;;9.09;63.71;96447.09;5064934;28;20051;-78
2021/05/02 09:04:04;;;;;;;7.50;6.90;;;;;;;9.15;63.86;96445.44;5072975;28;20392;-78
2021/05/02 09:06:33;;;;;;;6.88;6.22;;;;;;;9.31;63.54;96441.53;5071793;28;20068;-78
2021/05/02 09:09:12;;;;;;;8.60;7.82;;;;;;;9.50;60.40;96417.06;5072918;28;20039;-78
2021/05/02 09:11:49;;;;;;;7.30;6.70;;;;;;;9.80;62.88;96429.53;5073050;28;20047;-79
2021/05/02 09:14:20;;;;;;;28.75;21.10;;;;;;;10.37;62.79;96424.25;5062260;28;20051;-78
2021/05/02 09:16:54;;;;;;;15.93;14.38;;;;;;;10.78;58.71;96401.84;5076711;28;20087;-78
2021/05/02 09:19:23;;;;;;;8.10;7.50;;;;;;;11.28;60.11;96395.56;5077408;28;20029;-78
2021/05/02 09:21:51;;;;;;;8.52;7.80;;;;;;;11.61;59.53;96394.25;5076917;28;20055;-78
2021/05/02 09:24:33;;;;;;;8.25;7.55;;;;;;;11.74;52.59;96333.66;5076838;28;20053;-78
2021/05/02 09:27:12;;;;;;;9.00;8.30;;;;;;;11.53;55.05;96363.91;5077069;28;20043;-78
2021/05/02 09:29:53;;;;;;;7.07;6.65;;;;;;;11.22;56.88;96384.13;5067295;28;20055;-78
2021/05/02 09:32:22;;;;;;;8.80;8.07;;;;;;;10.94;56.51;96384.69;5076653;28;20028;-78
2021/05/02 09:34:55;;;;;;;8.10;7.50;;;;;;;10.70;56.87;96386.41;5076202;28;20052;-78
2021/05/02 09:37:32;;;;;;;8.25;7.53;;;;;;;10.50;56.45;96387.44;5076081;28;20048;-78
2021/05/02 09:40:00;;;;;;;8.00;7.35;;;;;;;10.30;57.46;96392.06;5075352;28;20047;-78
2021/05/02 09:42:32;;;;;;;8.75;8.02;;;;;;;10.22;57.90;96400.97;5077128;28;20044;-78
2021/05/02 09:45:00;;;;;;;9.30;8.52;;;;;;;10.62;58.10;96403.22;5076728;28;20047;-78
2021/05/02 09:47:37;;;;;;;8.75;8.05;;;;;;;11.20;53.61;96357.28;5076429;28;20044;-78
2021/05/02 09:50:17;;;;;;;9.20;8.43;;;;;;;11.58;56.39;96388.44;5075919;28;20075;-78
2021/05/02 09:52:52;;;;;;;8.35;7.65;;;;;;;11.64;54.47;96373.59;5075620;28;20037;-77
2021/05/02 09:55:32;;;;;;;8.25;7.68;;;;;;;11.44;53.52;96368.66;5076730;28;20039;-78
2021/05/02 09:58:21;;;;;;;7.85;7.25;;;;;;;11.31;51.43;96332.09;5076176;28;20029;-78
2021/05/02 10:00:50;;;;;;;8.30;7.60;;;;;;;11.11;53.73;96361.28;5076438;28;20052;-78
2021/05/02 10:03:16;;;;;;;7.95;7.15;;;;;;;11.02;54.79;96375.72;5076134;28;20024;-78
2021/05/02 10:06:04;;;;;;;7.43;6.82;;;;;;;11.23;53.87;96371.78;5075850;28;20480;-78
2021/05/02 10:08:35;;;;;;;7.47;6.97;;;;;;;11.49;53.49;96366.16;5074297;28;20041;-77
2021/05/02 10:11:09;;;;;;;7.45;6.95;;;;;;;11.46;53.13;96358.72;5075697;28;20056;-78
2021/05/02 10:13:39;;;;;;;7.95;7.38;;;;;;;11.34;53.58;96371.84;5076088;28;20032;-78
2021/05/02 10:16:06;;;;;;;7.80;7.10;;;;;;;11.22;53.16;96370.19;5075882;28;20408;-78
2021/05/02 10:18:33;;;;;;;7.22;6.65;;;;;;;11.03;53.09;96372.88;5075272;28;20040;-78
2021/05/02 10:20:59;;;;;;;7.57;7.07;;;;;;;10.85;53.25;96380.75;5074535;28;20384;-78
2021/05/02 10:23:27;;;;;;;7.15;6.45;;;;;;;10.71;53.01;96372.28;5075721;28;20146;-78
2021/05/02 10:25:56;;;;;;;7.43;6.82;;;;;;;10.56;53.17;96377.88;5075685;28;20493;-78
2021/05/02 10:28:28;;;;;;;7.65;7.03;;;;;;;10.36;52.07;96378.88;5074836;28;20558;-78
2021/05/02 10:30:58;;;;;;;7.35;6.65;;;;;;;10.14;53.45;96388.16;5076469;28;20045;-78
2021/05/02 10:33:38;;;;;;;6.70;6.20;;;;;;;9.88;54.25;96410.16;5075999;28;20461;-78
2021/05/02 10:36:17;;;;;;;8.35;7.65;;;;;;;9.61;55.17;96409.53;5064762;28;20500;-79
2021/05/02 10:39:00;;;;;;;7.85;7.25;;;;;;;9.43;56.99;96421.56;5075961;28;20044;-78
2021/05/02 10:41:31;;;;;;;8.25;7.55;;;;;;;9.38;55.64;96412.72;5076046;28;20036;-78
2021/05/02 10:44:17;;;;;;;8.77;8.07;;;;;;;9.44;58.95;96444.09;5075291;28;20457;-78
2021/05/02 10:46:43;;;;;;;8.93;8.23;;;;;;;9.68;56.54;96418.16;5067839;28;20051;-78
2021/05/02 10:49:19;;;;;;;8.35;7.75;;;;;;;10.12;59.15;96430.31;5075658;28;20037;-78
2021/05/02 10:51:49;;;;;;;7.32;6.80;;;;;;;10.35;56.37;96408.75;5075461;28;20035;-78
2021/05/02 10:54:21;;;;;;;7.55;6.95;;;;;;;10.62;56.83;96407.66;5076185;28;20028;-78
2021/05/02 10:56:51;;;;;;;6.90;6.40;;;;;;;10.91;56.25;96403.50;5075574;28;20043;-78
2021/05/02 10:59:21;;;;;;;7.30;6.80;;;;;;;11.28;55.66;96400.81;5075011;28;20393;-78
2021/05/02 11:01:47;;;;;;;6.75;6.25;;;;;;;11.38;55.10;96393.16;5075318;28;20408;-78
2021/05/02 11:04:14;;;;;;;6.93;6.40;;;;;;;11.43;54.91;96382.03;5074954;28;20044;-78
2021/05/02 11:06:41;;;;;;;7.10;6.55;;;;;;;11.38;54.44;96375.63;5074972;28;20043;-78
2021/05/02 11:09:10;;;;;;;6.70;6.20;;;;;;;11.60;54.43;96375.09;5074775;28;20036;-78
2021/05/02 11:11:39;;;;;;;6.70;6.20;;;;;;;11.72;54.22;96380.38;5075269;28;20032;-78
2021/05/02 11:16:39;;;;;;;7.25;6.70;;;;;;;12.09;53.31;96361.78;5075021;28;20045;-78
2021/05/02 11:19:07;;;;;;;6.80;6.18;;;;;;;12.16;52.24;96357.22;5073426;28;20427;-78
2021/05/02 11:21:52;;;;;;;6.25;5.75;;;;;;;12.06;49.28;96335.97;5074731;28;20388;-78
2021/05/02 11:24:22;;;;;;;6.10;5.68;;;;;;;11.86;51.62;96367.81;5074627;28;20036;-79
2021/05/02 11:29:33;;;;;;;6.50;6.00;;;;;;;11.76;52.23;96389.41;5074558;28;20469;-79
2021/05/02 11:32:00;;;;;;;6.30;5.90;;;;;;;11.69;52.06;96386.84;5073976;28;20052;-78
2021/05/02 11:34:35;;;;;;;6.90;6.30;;;;;;;11.62;52.39;96386.16;5073585;28;20044;-78
2021/05/02 11:37:01;;;;;;;6.65;6.15;;;;;;;11.56;52.90;96393.09;5059343;28;20048;-78
2021/05/02 11:39:30;;;;;;;6.78;6.30;;;;;;;11.44;52.98;96400.16;5073166;28;20382;-78
2021/05/02 11:42:07;;;;;;;6.10;5.70;;;;;;;11.29;53.12;96397.16;5074341;28;20041;-79